Aviation Digital Data Service (ADDS)

Output produced by METARs form (0544 UTC 27 July 2016)
found at http://www.aviationweather.gov/adds/metars/
 
KLNS 270453Z AUTO 00000KT 9SM CLR 24/22 A2994 RMK AO2 SLP133 T02390222 403220206
KLNS 270353Z AUTO 00000KT 10SM CLR 25/22 A2993 RMK AO2 SLP130 T02500217
KLNS 270253Z AUTO 21005KT 10SM CLR 27/21 A2993 RMK AO2 SLP130 T02720211 50004
KLNS 270153Z 21005KT 10SM CLR 28/22 A2994 RMK AO2 SLP134 T02780217
KLNS 270053Z 21005KT 10SM CLR 28/21 A2992 RMK AO2 SLP128 T02830211
KLNS 262353Z 20003KT 10SM CLR 30/20 A2991 RMK AO2 SLP126 T03000200 10322 20294 53003
KLNS 262253Z 29004KT 10SM CLR 31/18 A2990 RMK AO2 SLP121 T03110183
KLNS 262153Z 30004KT 10SM CLR 31/19 A2990 RMK AO2 SLP123 T03110189
KLNS 262053Z 26005KT 10SM FEW050 32/19 A2990 RMK AO2 SLP123 T03170189 58015
KLNS 261953Z 28007KT 10SM FEW049 32/19 A2992 RMK AO2 SLP128 T03220194
KLNS 261853Z 30007KT 10SM CLR 31/19 A2994 RMK AO2 SLP135 T03110189
KLNS 261753Z 31007KT 10SM CLR 31/19 A2995 RMK AO2 SLP137 T03110194 10311 20217 58007
KLNS 261653Z 30008KT 10SM CLR 31/19 A2996 RMK AO2 SLP141 T03060189
KLNS 261553Z 30006KT 10SM CLR 29/21 A2997 RMK AO2 SLP145 T02890211
KLNS 261453Z 29008KT 10SM CLR 28/22 A2997 RMK AO2 SLP145 T02780222 58000
KLNS 261353Z 29004KT 4SM BR CLR 26/23 A2997 RMK AO2 SLP146 T02560233
KLNS 261253Z 29005KT 4SM BR FEW004 23/23 A2998 RMK AO2 SLP148 T02330228
KLNS 261229Z 28006KT 2 1/2SM BR BKN003 22/22 A2998 RMK AO2 T02220222
KLNS 261207Z 29005KT 1SM BR OVC002 22/22 A2997 RMK AO2 T02170217
KLNS 261153Z 29004KT 1/4SM FG VV002 22/22 A2997 RMK AO2 SLP146 70028 T02170217 10217 20206 53011
KLNS 261053Z 30004KT M1/4SM FG VV002 21/21 A2996 RMK AO2 SLP141 T02110211
KLNS 260953Z AUTO 27003KT 1/4SM FG VV002 21/21 A2995 RMK AO2 SLP136 T02060206
KLNS 260923Z AUTO 26003KT 1/4SM FG VV002 21/21 A2994 RMK AO2 T02060206
KLNS 260916Z AUTO 26004KT 1/2SM FG VV002 21/21 A2993 RMK AO2 T02060206
KLNS 260900Z AUTO 32003KT 1 1/2SM BR OVC003 21/21 A2993 RMK AO2 T02060206
KLNS 260853Z AUTO 32004KT 2SM BR BKN003 21/21 A2994 RMK AO2 SLP133 T02060206 50003
KLNS 260844Z AUTO 31004KT 2 1/2SM BR BKN003 21/21 A2994 RMK AO2 T02060206
KLNS 260803Z AUTO 00000KT 6SM BR BKN004 BKN049 21/21 A2994 RMK AO2 T02060206
KLNS 260753Z AUTO 00000KT 5SM BR SCT004 BKN037 BKN049 21/21 A2994 RMK AO2 SLP133 T02060206
KLNS 260746Z AUTO 00000KT 5SM BR FEW004 SCT037 BKN049 21/21 A2994 RMK AO2 T02060206
KLNS 260653Z AUTO 00000KT 7SM FEW038 21/21 A2993 RMK AO2 SLP131 T02110211
KLNS 260617Z AUTO 27003KT 8SM FEW005 21/21 A2993 RMK AO2 T02110211
KLNS 260553Z AUTO 00000KT 9SM CLR 22/21 A2993 RMK AO2 SLP130 60027 T02170211 10222 20211 58002
KLNS 260453Z AUTO 00000KT 10SM CLR 22/21 A2993 RMK AO2 SLP130 T02170211 403440211
KLNS 260353Z AUTO 00000KT 10SM CLR 22/21 A2994 RMK AO2 SLP133 T02170211
KLNS 260253Z AUTO 14004KT 10SM CLR 22/21 A2993 RMK AO2 SLP133 60027 T02170211 50000
KLNS 260153Z 13004KT 8SM FEW075 22/21 A2994 RMK AO2 SLP135 T02170211
KLNS 260103Z 22005KT 10SM FEW090 22/22 A2994 RMK AO2 LTG DSNT SE-SW T02170217
KLNS 260053Z 00000KT 10SM VCTS FEW090 22/21 A2993 RMK AO2 LTG DSNT SE-SW RAE32 TSE29 SLP132 P0027 T02170211
KLNS 260035Z 00000KT 10SM VCTS FEW029 SCT080 SCT110 22/21 A2991 RMK AO2 LTG DSNT SE-W RAE32 TSE29 P0027 T02170211
KLNS 260025Z 02004KT 10SM -TSRA SCT030 SCT065 BKN080 22/22 A2990 RMK AO2 LTG DSNT SE-W P0027 T02220217
KLNS 260018Z 00000KT 2 1/2SM -TSRA BR SCT030 SCT060 BKN075 22/21 A2990 RMK AO2 LTG DSNT SE-W P0027 T02170211
KLNS 260006Z 26009KT 230V290 3/4SM +TSRA BR SCT025 BKN065 OVC095 22/21 A2992 RMK AO2 VIS 1/4V4 LTG DSNT ALQDS P0019 T02220211
KLNS 252353Z VRB03KT 10SM -TSRA BKN070 BKN095 22/21 A2993 RMK AO2 LTG DSNT ALQDS RAB09 TSB06E21B46 PRESRR SLP133 P0001 60001 T02220211 10344 20222 51029
KLNS 252327Z 36017G23KT 10SM VCTS -RA FEW036 SCT049 BKN065 22/21 A2991 RMK AO2 LTG DSNT ALQDS RAB09 TSB06E21 P0001 T02220211
KLNS 252312Z 01014KT 9SM -TSRA SCT049 BKN070 23/21 A2993 RMK AO2 LTG DSNT ALQDS RAB09 TSB06 P0000 T02330206
KLNS 252304Z 35013KT 10SM VCTS FEW049 BKN070 BKN100 24/20 A2995 RMK AO2 LTG DSNT ALQDS PRESRR T02390200
KLNS 252253Z 02017G28KT 10SM FEW034 SCT047 BKN100 24/19 A2991 RMK AO2 PK WND 04040/2231 WSHFT 2221 LTG DSNT ALQDS SLP125 T02440194
KLNS 252241Z 03025G33KT 10SM FEW034 SCT045 BKN050 26/19 A2990 RMK AO2 PK WND 04040/2231 WSHFT 2221 LTG DSNT ALQDS T02610194
KLNS 252153Z 24011KT 10SM FEW060 FEW075 34/22 A2985 RMK AO2 LTG DSNT N AND NW SLP102 T03390222
KLNS 252053Z 30006KT 10SM CLR 33/23 A2983 RMK AO2 LTG DSNT SW SLP097 60000 T03330233 56019
KLNS 252001Z 32014KT 10SM FEW050 SCT060 33/23 A2984 RMK AO2 LTG DSNT N AND NE T03280233
KLNS 251953Z 26007KT 10SM VCTS FEW060 34/24 A2985 RMK AO2 LTG DSNT N AND NE RAB19E29 SLP103 P0000 T03390239
KLNS 251928Z 23007KT 10SM VCTS -RA FEW050 BKN065 BKN080 32/23 A2985 RMK AO2 LTG DSNT W AND NW RAB19 P0000 T03220228
KLNS 251853Z 20008KT 10SM FEW046 34/22 A2986 RMK AO2 LTG DSNT W AND NW SLP108 T03440222
KLNS 251753Z 22008KT 10SM CLR 34/23 A2989 RMK AO2 LTG DSNT NW SLP116 T03390233 10339 20244 58024